createdAt,value
2023-05-10T00:02:23.911Z,89.50
2023-05-10T00:05:52.052Z,89.50
2023-05-10T00:09:17.947Z,89.40
2023-05-10T00:12:43.748Z,89.10
2023-05-10T00:16:08.419Z,89.30
2023-05-10T00:19:33.488Z,89.30
2023-05-10T00:22:57.192Z,88.90
2023-05-10T00:26:21.579Z,89.40
2023-05-10T00:29:49.169Z,89.50
2023-05-10T00:33:13.382Z,89.60
2023-05-10T00:36:38.233Z,90.00
2023-05-10T00:40:01.960Z,90.00
2023-05-10T00:43:25.688Z,90.10
2023-05-10T00:46:50.482Z,90.10
2023-05-10T00:50:14.510Z,90.10
2023-05-10T00:53:39.681Z,90.10
2023-05-10T00:57:04.243Z,90.00
2023-05-10T01:00:27.952Z,90.30
2023-05-10T01:03:51.852Z,90.20
2023-05-10T01:07:15.355Z,90.20
2023-05-10T01:10:40.375Z,90.00
2023-05-10T01:14:05.763Z,90.20
2023-05-10T01:17:30.016Z,90.30
2023-05-10T01:21:13.214Z,90.20
2023-05-10T01:25:25.037Z,90.00
2023-05-10T01:29:17.324Z,89.70
2023-05-10T01:32:55.331Z,89.60
2023-05-10T01:36:28.955Z,90.20
2023-05-10T01:40:05.025Z,90.40
2023-05-10T01:43:39.204Z,90.30
2023-05-10T01:47:11.768Z,90.30
2023-05-10T01:50:41.802Z,90.30
2023-05-10T01:54:07.859Z,90.70
2023-05-10T01:57:37.845Z,90.80
2023-05-10T02:01:06.024Z,90.80
2023-05-10T02:04:30.491Z,90.80
2023-05-10T02:07:56.428Z,90.90
2023-05-10T02:11:23.040Z,90.70
2023-05-10T02:14:49.591Z,90.90
2023-05-10T02:18:15.424Z,91.00
2023-05-10T02:21:41.394Z,91.10
2023-05-10T02:25:09.960Z,91.20
2023-05-10T02:28:35.621Z,91.00
2023-05-10T02:32:01.722Z,91.10
2023-05-10T02:35:27.631Z,90.90
2023-05-10T02:38:54.728Z,90.80
2023-05-10T02:42:28.612Z,90.60
2023-05-10T02:45:52.428Z,90.70
2023-05-10T02:49:16.361Z,90.90
2023-05-10T02:52:46.399Z,91.00
2023-05-10T02:56:21.391Z,91.10
2023-05-10T02:59:46.371Z,91.10
2023-05-10T03:03:09.965Z,91.20
2023-05-10T03:06:34.035Z,91.50
2023-05-10T03:09:59.453Z,91.50
2023-05-10T03:13:37.268Z,91.40
2023-05-10T03:17:11.282Z,90.90
2023-05-10T03:20:44.256Z,91.10
2023-05-10T03:24:15.796Z,90.90
2023-05-10T03:27:45.220Z,91.10
2023-05-10T03:31:09.820Z,90.50
2023-05-10T03:34:35.171Z,90.80
2023-05-10T03:37:58.746Z,90.80
2023-05-10T03:41:22.628Z,91.10
2023-05-10T03:44:46.194Z,91.20
2023-05-10T03:48:09.840Z,91.20
2023-05-10T03:51:34.865Z,91.20
2023-05-10T03:54:58.421Z,91.10
2023-05-10T03:58:22.841Z,91.30
2023-05-10T04:01:46.467Z,91.20
2023-05-10T04:05:11.194Z,91.20
2023-05-10T04:08:36.149Z,91.20
2023-05-10T04:12:01.516Z,90.90
2023-05-10T04:15:25.336Z,90.60
2023-05-10T04:18:49.074Z,90.60
2023-05-10T04:22:12.534Z,90.50
2023-05-10T04:25:37.844Z,90.50
2023-05-10T04:29:01.388Z,90.60
2023-05-10T04:32:25.259Z,91.00
2023-05-10T04:35:48.749Z,91.30
2023-05-10T04:39:12.559Z,91.40
2023-05-10T04:42:37.436Z,91.50
2023-05-10T04:46:00.971Z,91.50
2023-05-10T04:49:24.526Z,91.60
2023-05-10T04:52:47.965Z,91.50
2023-05-10T04:56:11.456Z,91.60
2023-05-10T04:59:38.145Z,91.80
2023-05-10T05:03:01.892Z,91.80
2023-05-10T05:06:25.903Z,92.10
2023-05-10T05:09:49.354Z,92.20
2023-05-10T05:13:15.089Z,92.50
2023-05-10T05:16:39.968Z,92.80
2023-05-10T05:20:04.088Z,93.50
2023-05-10T05:23:27.913Z,94.20
2023-05-10T05:26:51.393Z,94.00
2023-05-10T05:30:15.353Z,93.80
2023-05-10T05:33:40.505Z,93.40
2023-05-10T05:37:04.150Z,92.70
2023-05-10T05:40:27.864Z,92.90
2023-05-10T05:43:51.330Z,93.20
2023-05-10T05:47:14.982Z,93.60
2023-05-10T05:50:39.823Z,93.20
2023-05-10T05:54:05.184Z,92.90
2023-05-10T05:57:28.789Z,93.30
2023-05-10T06:00:52.816Z,93.50
2023-05-10T06:04:16.602Z,93.90
2023-05-10T06:07:43.148Z,93.80
2023-05-10T06:11:06.784Z,93.70
2023-05-10T06:14:30.565Z,94.20
2023-05-10T06:17:54.156Z,94.30
2023-05-10T06:21:17.714Z,94.30
2023-05-10T06:24:42.588Z,94.40
2023-05-10T06:28:06.098Z,94.10
2023-05-10T06:31:29.628Z,94.50
2023-05-10T06:34:53.151Z,94.70
2023-05-10T06:38:16.705Z,94.60
2023-05-10T06:41:41.535Z,94.50
2023-05-10T06:45:06.273Z,93.70
2023-05-10T06:48:29.900Z,93.40
2023-05-10T06:51:53.468Z,92.90
2023-05-10T06:55:17.264Z,92.40
2023-05-10T06:58:42.865Z,92.40
2023-05-10T07:02:06.625Z,92.30
2023-05-10T07:05:30.451Z,92.30
2023-05-10T07:08:54.459Z,92.30
2023-05-10T07:12:18.166Z,92.30
2023-05-10T07:15:43.357Z,92.60
2023-05-10T07:19:07.343Z,92.80
2023-05-10T07:22:30.936Z,93.70
2023-05-10T07:25:54.457Z,94.80
2023-05-10T07:29:17.912Z,95.70
2023-05-10T07:32:43.595Z,96.30
2023-05-10T07:36:07.776Z,96.00
2023-05-10T07:39:31.283Z,96.90
2023-05-10T07:42:54.735Z,96.90
2023-05-10T07:46:18.292Z,96.70
2023-05-10T07:49:43.125Z,95.70
2023-05-10T07:53:06.643Z,95.10
2023-05-10T07:56:33.276Z,94.40
2023-05-10T07:59:57.049Z,92.60
2023-05-10T08:03:20.805Z,92.20
2023-05-10T08:06:45.823Z,92.10
2023-05-10T08:10:11.986Z,90.50
2023-05-10T08:13:35.778Z,90.70
2023-05-10T08:16:59.299Z,90.50
2023-05-10T08:20:23.023Z,89.80
2023-05-10T08:23:48.050Z,89.90
2023-05-10T08:27:11.564Z,90.30
2023-05-10T08:30:35.098Z,91.10
2023-05-10T08:33:58.578Z,90.60
2023-05-10T08:37:22.239Z,90.50
2023-05-10T08:40:48.224Z,90.00
2023-05-10T08:44:12.616Z,90.60
2023-05-10T08:47:40.710Z,90.60
2023-05-10T08:51:06.090Z,90.50
2023-05-10T08:54:29.968Z,90.80
2023-05-10T08:57:55.583Z,90.50
2023-05-10T09:01:20.416Z,90.40
2023-05-10T09:04:44.142Z,91.40
2023-05-10T09:08:09.859Z,92.70
2023-05-10T09:11:33.930Z,92.70
2023-05-10T09:15:02.140Z,93.00
2023-05-10T09:18:27.917Z,92.40
2023-05-10T09:21:51.696Z,92.90
2023-05-10T09:25:17.881Z,92.60
2023-05-10T09:28:54.672Z,91.50
2023-05-10T09:32:19.542Z,87.50
2023-05-10T09:35:43.818Z,84.90
2023-05-10T09:39:07.375Z,84.70
2023-05-10T09:42:30.877Z,85.40
2023-05-10T09:45:54.447Z,86.40
2023-05-10T09:49:19.353Z,87.80
2023-05-10T09:52:51.424Z,89.30
2023-05-10T09:56:15.276Z,87.80
2023-05-10T09:59:45.406Z,88.30
2023-05-10T10:03:16.332Z,88.40
2023-05-10T10:06:42.333Z,86.30
2023-05-10T10:10:12.339Z,88.70
2023-05-10T10:13:36.321Z,89.30
2023-05-10T10:20:30.451Z,86.50
2023-05-10T10:23:55.329Z,85.90
2023-05-10T10:27:29.052Z,84.00
2023-05-10T10:30:56.754Z,82.70
2023-05-10T10:34:29.419Z,84.10
2023-05-10T10:37:53.852Z,84.40
2023-05-10T10:41:36.310Z,86.50
2023-05-10T10:45:15.229Z,86.40
2023-05-10T10:48:39.098Z,81.70
2023-05-10T10:52:24.569Z,84.60
2023-05-10T10:55:49.574Z,80.30
2023-05-10T10:59:14.625Z,80.90
2023-05-10T11:02:49.034Z,80.00
2023-05-10T11:06:12.676Z,75.80
2023-05-10T11:09:42.303Z,76.30
2023-05-10T11:13:09.741Z,74.70
2023-05-10T11:16:44.654Z,75.50
2023-05-10T11:20:12.768Z,73.20
2023-05-10T11:23:52.482Z,73.80
2023-05-10T11:27:16.139Z,73.10
2023-05-10T11:30:41.712Z,76.50
2023-05-10T11:34:06.632Z,76.80
2023-05-10T11:37:33.269Z,76.70
2023-05-10T11:40:56.828Z,77.60
2023-05-10T11:44:20.705Z,79.50
2023-05-10T11:47:44.622Z,79.40
2023-05-10T11:51:10.947Z,79.20
2023-05-10T11:54:35.764Z,78.20
2023-05-10T11:58:04.274Z,78.90
2023-05-10T12:01:29.621Z,76.80
2023-05-10T12:04:54.013Z,73.50
2023-05-10T12:08:24.439Z,74.10
2023-05-10T12:11:47.940Z,73.20
2023-05-10T12:15:20.453Z,74.10
2023-05-10T12:18:44.298Z,73.50
2023-05-10T12:22:07.939Z,76.10
2023-05-10T12:25:35.330Z,76.40
2023-05-10T12:29:16.568Z,74.50
2023-05-10T12:32:41.794Z,74.40
2023-05-10T12:36:05.882Z,76.80
2023-05-10T12:39:41.885Z,76.80
2023-05-10T12:43:06.762Z,76.70
2023-05-10T12:46:30.509Z,78.00
2023-05-10T12:49:54.159Z,76.60
2023-05-10T12:53:18.440Z,76.30
2023-05-10T12:56:43.627Z,76.50
2023-05-10T13:00:10.884Z,75.70
2023-05-10T13:03:34.793Z,74.80
2023-05-10T13:06:59.891Z,74.80
2023-05-10T13:10:24.732Z,75.40
2023-05-10T13:13:48.238Z,74.80
2023-05-10T13:17:13.298Z,74.20
2023-05-10T13:20:36.930Z,74.30
2023-05-10T13:24:01.049Z,74.20
2023-05-10T13:27:24.942Z,74.70
2023-05-10T13:30:48.515Z,75.70
2023-05-10T13:34:13.431Z,76.20
2023-05-10T13:37:38.206Z,77.50
2023-05-10T13:41:01.764Z,79.00
2023-05-10T13:44:25.303Z,78.90
2023-05-10T13:47:48.974Z,79.60
2023-05-10T13:51:13.814Z,78.70
2023-05-10T13:54:37.989Z,78.50
2023-05-10T13:58:01.516Z,77.50
2023-05-10T14:01:25.194Z,77.80
2023-05-10T14:04:49.224Z,77.00
2023-05-10T14:08:15.583Z,75.70
2023-05-10T14:11:42.649Z,76.50
2023-05-10T14:15:07.736Z,77.30
2023-05-10T14:18:31.651Z,76.20
2023-05-10T14:21:55.237Z,75.40
2023-05-10T14:25:20.536Z,75.60
2023-05-10T14:28:44.234Z,75.20
2023-05-10T14:32:08.042Z,75.40
2023-05-10T14:35:32.960Z,76.10
2023-05-10T14:38:56.543Z,77.20
2023-05-10T14:42:21.500Z,75.50
2023-05-10T14:45:46.569Z,75.30
2023-05-10T14:49:10.170Z,75.20
2023-05-10T14:52:34.359Z,74.70
2023-05-10T14:55:58.362Z,73.20
2023-05-10T14:59:23.215Z,73.80
2023-05-10T15:02:47.145Z,74.60
2023-05-10T15:06:11.562Z,74.30
2023-05-10T15:09:35.069Z,74.90
2023-05-10T15:12:58.705Z,75.40
2023-05-10T15:16:23.678Z,75.10
2023-05-10T15:19:47.522Z,74.50
2023-05-10T15:23:10.984Z,75.30
2023-05-10T15:26:34.449Z,73.60
2023-05-10T15:29:57.941Z,75.10
2023-05-10T15:33:22.838Z,74.70
2023-05-10T15:36:47.025Z,74.10
2023-05-10T15:40:11.843Z,74.20
2023-05-10T15:43:35.267Z,74.80
2023-05-10T15:46:58.809Z,75.40
2023-05-10T15:50:23.682Z,75.60
2023-05-10T15:54:05.369Z,75.60
2023-05-10T15:57:31.045Z,76.30
2023-05-10T16:00:54.603Z,75.50
2023-05-10T16:04:18.150Z,73.20
2023-05-10T16:07:44.012Z,73.50
2023-05-10T16:11:09.207Z,73.30
2023-05-10T16:14:33.175Z,72.60
2023-05-10T16:17:56.793Z,72.00
2023-05-10T16:21:20.830Z,72.40
2023-05-10T16:24:45.764Z,72.30
2023-05-10T16:28:09.332Z,71.30
2023-05-10T16:31:33.191Z,71.60
2023-05-10T16:34:56.803Z,72.10
2023-05-10T16:38:21.543Z,72.10
2023-05-10T16:41:46.456Z,72.60
2023-05-10T16:45:11.011Z,72.00
2023-05-10T16:48:34.557Z,72.70
2023-05-10T16:51:58.227Z,73.00
2023-05-10T16:55:24.773Z,73.20
2023-05-10T16:58:51.242Z,72.90
2023-05-10T17:02:15.446Z,73.00
2023-05-10T17:05:38.934Z,73.10
2023-05-10T17:09:03.906Z,73.40
2023-05-10T17:12:27.507Z,73.40
2023-05-10T17:15:52.457Z,73.10
2023-05-10T17:19:16.099Z,72.90
2023-05-10T17:22:39.688Z,73.20
2023-05-10T17:26:05.825Z,73.00
2023-05-10T17:29:29.426Z,72.80
2023-05-10T17:32:54.440Z,72.80
2023-05-10T17:36:18.090Z,72.90
2023-05-10T17:39:41.560Z,72.80
2023-05-10T17:43:05.116Z,73.20
2023-05-10T17:46:28.628Z,72.90
2023-05-10T17:49:53.656Z,73.30
2023-05-10T17:53:17.308Z,73.30
2023-05-10T17:56:40.870Z,73.60
2023-05-10T18:00:06.481Z,73.80
2023-05-10T18:03:30.194Z,74.00
2023-05-10T18:07:01.145Z,74.80
2023-05-10T18:10:25.883Z,74.20
2023-05-10T18:13:50.578Z,74.30
2023-05-10T18:17:14.216Z,74.50
2023-05-10T18:20:38.228Z,74.50
2023-05-10T18:24:03.055Z,74.40
2023-05-10T18:27:26.705Z,74.20
2023-05-10T18:30:50.284Z,74.50
2023-05-10T18:34:13.824Z,74.20
2023-05-10T18:37:38.993Z,74.40
2023-05-10T18:41:04.083Z,74.50
2023-05-10T18:44:28.972Z,74.20
2023-05-10T18:47:52.468Z,74.70
2023-05-10T18:51:16.370Z,74.60
2023-05-10T18:54:39.933Z,74.80
2023-05-10T18:58:04.656Z,74.80
2023-05-10T19:01:28.186Z,74.70
2023-05-10T19:04:51.770Z,74.60
2023-05-10T19:08:15.440Z,75.00
2023-05-10T19:11:39.124Z,75.10
2023-05-10T19:15:04.253Z,75.30
2023-05-10T19:18:28.433Z,75.20
2023-05-10T19:21:52.031Z,75.10
2023-05-10T19:25:17.010Z,75.00
2023-05-10T19:28:41.996Z,75.10
2023-05-10T19:32:07.065Z,75.40
2023-05-10T19:35:30.608Z,75.20
2023-05-10T19:38:54.149Z,75.60
2023-05-10T19:42:19.356Z,75.90
2023-05-10T19:45:43.003Z,75.70
2023-05-10T19:49:08.007Z,75.90
2023-05-10T19:52:31.491Z,75.90
2023-05-10T19:55:56.168Z,76.20
2023-05-10T19:59:19.764Z,76.00
2023-05-10T20:02:43.380Z,76.40
2023-05-10T20:06:08.349Z,76.40
2023-05-10T20:09:31.917Z,76.40
2023-05-10T20:12:55.478Z,76.70
2023-05-10T20:16:19.059Z,76.80
2023-05-10T20:19:42.720Z,77.00
2023-05-10T20:23:07.665Z,76.70
2023-05-10T20:26:31.597Z,76.50
2023-05-10T20:29:55.129Z,76.70
2023-05-10T20:33:19.105Z,76.80
2023-05-10T20:36:42.782Z,77.60
2023-05-10T20:40:09.324Z,77.10
2023-05-10T20:43:33.132Z,76.50
2023-05-10T20:46:56.842Z,76.60
2023-05-10T20:50:20.554Z,76.40
2023-05-10T20:53:44.184Z,76.20
2023-05-10T20:57:09.055Z,76.00
2023-05-10T21:00:32.712Z,76.20
2023-05-10T21:03:56.321Z,76.10
2023-05-10T21:07:19.786Z,75.90
2023-05-10T21:10:43.278Z,76.20
2023-05-10T21:14:09.659Z,76.20
2023-05-10T21:17:33.686Z,76.30
2023-05-10T21:20:57.382Z,76.40
2023-05-10T21:24:21.170Z,76.20
2023-05-10T21:27:44.699Z,76.30
2023-05-10T21:31:09.779Z,76.30
2023-05-10T21:34:33.681Z,76.20
2023-05-10T21:37:57.433Z,76.20
2023-05-10T21:41:21.682Z,76.40
2023-05-10T21:44:45.264Z,76.40
2023-05-10T21:48:10.300Z,76.80
2023-05-10T21:51:33.800Z,76.00
2023-05-10T21:54:57.531Z,76.20
2023-05-10T21:58:21.107Z,75.90
2023-05-10T22:01:44.856Z,75.80
2023-05-10T22:05:10.755Z,76.10
2023-05-10T22:08:34.347Z,76.00
2023-05-10T22:11:57.930Z,76.10
2023-05-10T22:15:21.376Z,76.40
2023-05-10T22:18:45.419Z,76.30
2023-05-10T22:22:11.825Z,76.40
2023-05-10T22:25:35.500Z,76.40
2023-05-10T22:28:59.247Z,76.50
2023-05-10T22:32:22.886Z,76.00
2023-05-10T22:35:46.431Z,76.40
2023-05-10T22:39:11.703Z,76.00
2023-05-10T22:42:35.515Z,76.30
2023-05-10T22:45:59.443Z,76.40
2023-05-10T22:49:22.987Z,76.90
2023-05-10T22:52:46.557Z,76.80
2023-05-10T22:56:11.596Z,76.50
2023-05-10T22:59:35.167Z,76.50
2023-05-10T23:02:59.960Z,76.80
2023-05-10T23:06:23.525Z,76.60
2023-05-10T23:09:47.198Z,76.90
2023-05-10T23:13:12.731Z,77.00
2023-05-10T23:16:36.698Z,76.80
2023-05-10T23:20:00.347Z,76.80
2023-05-10T23:23:23.896Z,76.70
2023-05-10T23:26:47.401Z,76.70
2023-05-10T23:30:13.429Z,76.80
2023-05-10T23:33:37.161Z,76.80
2023-05-10T23:37:00.657Z,76.80
2023-05-10T23:40:24.130Z,76.90
2023-05-10T23:43:47.595Z,76.70
2023-05-10T23:47:12.441Z,76.60
2023-05-10T23:50:37.150Z,76.60
2023-05-10T23:54:00.652Z,76.80
2023-05-10T23:57:24.253Z,76.70
